createdAt,value
2019-04-26T00:00:48.283Z,4.97
2019-04-26T00:03:20.125Z,4.70
2019-04-26T00:05:50.161Z,4.73
2019-04-26T00:08:20.104Z,4.57
2019-04-26T00:11:03.871Z,4.97
2019-04-26T00:13:52.004Z,4.57
2019-04-26T00:16:29.304Z,4.47
2019-04-26T00:18:59.468Z,4.67
2019-04-26T00:21:29.618Z,5.17
2019-04-26T00:24:00.396Z,4.73
2019-04-26T00:26:31.284Z,4.87
2019-04-26T00:29:02.340Z,5.03
2019-04-26T00:31:32.368Z,4.57
2019-04-26T00:34:03.423Z,5.20
2019-04-26T00:36:33.407Z,5.50
2019-04-26T00:39:04.748Z,4.70
2019-04-26T00:41:35.708Z,4.60
2019-04-26T00:44:05.712Z,5.53
2019-04-26T00:46:37.571Z,4.63
2019-04-26T00:49:10.272Z,5.07
2019-04-26T00:51:41.025Z,4.80
2019-04-26T00:54:11.624Z,5.17
2019-04-26T00:56:42.091Z,4.73
2019-04-26T00:59:12.341Z,5.67
2019-04-26T01:01:44.899Z,4.83
2019-04-26T01:04:15.904Z,5.73
2019-04-26T01:06:49.149Z,4.93
2019-04-26T01:09:19.495Z,5.17
2019-04-26T01:11:49.475Z,4.80
2019-04-26T01:14:19.955Z,4.77
2019-04-26T01:16:50.016Z,4.90
2019-04-26T01:19:22.453Z,5.20
2019-04-26T01:21:58.326Z,5.07
2019-04-26T01:24:31.389Z,4.53
2019-04-26T01:27:04.686Z,5.40
2019-04-26T01:29:36.785Z,4.87
2019-04-26T01:32:09.867Z,5.60
2019-04-26T01:34:42.054Z,5.10
2019-04-26T01:37:12.284Z,4.80
2019-04-26T01:39:48.029Z,5.30
2019-04-26T01:42:22.432Z,5.00
2019-04-26T01:45:01.262Z,5.10
2019-04-26T01:47:32.708Z,4.90
2019-04-26T01:50:02.915Z,5.20
2019-04-26T01:52:32.988Z,5.10
2019-04-26T01:55:03.819Z,5.13
2019-04-26T01:57:34.216Z,4.50
2019-04-26T02:00:10.312Z,5.10
2019-04-26T02:02:42.066Z,5.13
2019-04-26T02:05:13.999Z,5.63
2019-04-26T02:07:44.032Z,5.90
2019-04-26T02:10:17.131Z,6.00
2019-04-26T02:12:48.921Z,5.40
2019-04-26T02:15:23.945Z,5.47
2019-04-26T02:17:56.841Z,6.20
2019-04-26T02:20:52.723Z,5.53
2019-04-26T02:23:34.361Z,4.90
2019-04-26T02:26:22.412Z,4.60
2019-04-26T02:28:52.358Z,5.40
2019-04-26T02:31:22.354Z,5.67
2019-04-26T02:33:52.842Z,5.23
2019-04-26T02:36:23.157Z,4.97
2019-04-26T02:38:55.847Z,5.30
2019-04-26T02:41:28.106Z,5.43
2019-04-26T02:44:01.239Z,4.60
2019-04-26T02:46:37.713Z,5.00
2019-04-26T02:49:22.647Z,5.83
2019-04-26T02:51:55.699Z,5.80
2019-04-26T02:54:46.945Z,5.23
2019-04-26T02:57:26.013Z,5.03
2019-04-26T02:59:59.116Z,5.27
2019-04-26T03:02:32.268Z,5.10
2019-04-26T03:05:03.871Z,6.00
2019-04-26T03:07:39.855Z,5.43
2019-04-26T03:10:10.442Z,6.07
2019-04-26T03:12:44.240Z,6.60
2019-04-26T03:15:24.711Z,5.10
2019-04-26T03:18:21.316Z,5.70
2019-04-26T03:20:54.914Z,5.73
2019-04-26T03:23:41.566Z,5.90
2019-04-26T03:26:20.732Z,6.03
2019-04-26T03:28:56.790Z,5.40
2019-04-26T03:31:54.467Z,6.00
2019-04-26T03:34:28.244Z,6.60
2019-04-26T03:37:26.732Z,6.07
2019-04-26T03:40:12.707Z,7.00
2019-04-26T03:43:02.251Z,5.67
2019-04-26T03:45:42.577Z,5.83
2019-04-26T03:48:48.928Z,6.60
2019-04-26T03:51:39.691Z,5.67
2019-04-26T03:54:19.210Z,6.07
2019-04-26T03:56:53.851Z,6.53
2019-04-26T03:59:31.244Z,5.63
2019-04-26T04:02:21.445Z,6.20
2019-04-26T04:05:01.939Z,6.10
2019-04-26T04:07:39.847Z,6.30
2019-04-26T04:10:15.938Z,6.43
2019-04-26T04:12:58.073Z,6.83
2019-04-26T04:15:34.293Z,5.90
2019-04-26T04:18:10.040Z,5.57
2019-04-26T04:21:18.648Z,6.27
2019-04-26T04:23:51.727Z,6.27
2019-04-26T04:26:27.275Z,5.90
2019-04-26T04:29:18.256Z,6.47
2019-04-26T04:31:56.990Z,6.13
2019-04-26T04:34:30.129Z,6.43
2019-04-26T04:37:03.497Z,6.37
2019-04-26T04:39:49.878Z,5.93
2019-04-26T04:42:43.440Z,6.60
2019-04-26T04:45:36.091Z,6.03
2019-04-26T04:48:37.120Z,6.13
2019-04-26T04:51:28.264Z,6.80
2019-04-26T04:54:18.116Z,6.73
2019-04-26T04:56:57.371Z,7.00
2019-04-26T04:59:32.923Z,6.40
2019-04-26T05:02:23.545Z,6.03
2019-04-26T05:05:14.851Z,6.80
2019-04-26T05:08:07.112Z,5.47
2019-04-26T05:10:46.179Z,6.30
2019-04-26T05:13:22.109Z,6.03
2019-04-26T05:16:17.454Z,6.70
2019-04-26T05:19:29.216Z,6.23
2019-04-26T05:22:08.046Z,6.07
2019-04-26T05:24:41.133Z,6.20
2019-04-26T05:27:34.819Z,6.70
2019-04-26T05:30:15.459Z,6.23
2019-04-26T05:32:54.726Z,5.83
2019-04-26T05:35:29.513Z,6.33
2019-04-26T05:38:20.617Z,6.07
2019-04-26T05:41:18.591Z,6.23
2019-04-26T05:44:14.150Z,5.90
2019-04-26T05:47:03.834Z,6.00
2019-04-26T05:50:16.006Z,6.00
2019-04-26T05:53:13.337Z,5.77
2019-04-26T05:56:32.277Z,5.77
2019-04-26T05:59:36.782Z,6.03
2019-04-26T06:02:35.679Z,5.30
2019-04-26T06:05:28.386Z,5.00
2019-04-26T06:08:30.625Z,5.30
2019-04-26T06:10:58.435Z,5.43
2019-04-26T06:13:45.090Z,5.57
2019-04-26T06:16:34.302Z,4.67
2019-04-26T06:19:17.894Z,5.47
2019-04-26T06:22:02.470Z,5.20
2019-04-26T06:24:35.492Z,5.33
2019-04-26T06:27:34.531Z,4.53
2019-04-26T06:30:10.158Z,5.53
2019-04-26T06:33:00.271Z,5.50
2019-04-26T06:35:25.591Z,5.03
2019-04-26T06:38:08.927Z,5.57
2019-04-26T06:40:54.597Z,5.80
2019-04-26T06:43:30.278Z,5.60
2019-04-26T06:46:22.881Z,5.30
2019-04-26T06:49:24.097Z,5.40
2019-04-26T06:52:00.422Z,5.73
2019-04-26T06:54:48.810Z,4.87
2019-04-26T06:57:55.185Z,4.73
2019-04-26T07:00:29.520Z,4.90
2019-04-26T07:03:08.486Z,4.70
2019-04-26T07:05:47.290Z,4.60
2019-04-26T07:08:22.862Z,4.60
2019-04-26T07:11:19.003Z,4.77
2019-04-26T07:14:10.004Z,3.57
2019-04-26T07:16:43.156Z,3.97
2019-04-26T07:19:40.713Z,3.80
2019-04-26T07:22:21.130Z,4.37
2019-04-26T07:25:18.511Z,3.47
2019-04-26T07:28:03.837Z,4.10
2019-04-26T07:30:35.083Z,4.20
2019-04-26T07:33:26.549Z,4.27
2019-04-26T07:36:20.720Z,4.37
2019-04-26T07:39:19.408Z,4.33
2019-04-26T07:42:25.233Z,3.73
2019-04-26T07:45:17.822Z,4.40
2019-04-26T07:48:17.366Z,3.83
2019-04-26T07:51:06.399Z,3.77
2019-04-26T07:54:00.213Z,3.40
2019-04-26T07:56:50.718Z,3.30
2019-04-26T07:59:47.748Z,3.37
2019-04-26T08:02:39.536Z,3.17
2019-04-26T08:05:38.110Z,2.90
2019-04-26T08:08:10.814Z,2.93
2019-04-26T08:10:44.482Z,2.40
2019-04-26T08:13:17.020Z,2.97
2019-04-26T08:16:04.880Z,2.83
2019-04-26T08:18:39.862Z,2.70
2019-04-26T08:21:20.483Z,2.87
2019-04-26T08:24:01.016Z,3.07
2019-04-26T08:26:33.798Z,3.17
2019-04-26T08:29:07.030Z,2.67
2019-04-26T08:31:40.065Z,3.20
2019-04-26T08:34:14.506Z,2.27
2019-04-26T08:36:50.702Z,2.53
2019-04-26T08:39:32.370Z,2.77
2019-04-26T08:42:01.663Z,2.60
2019-04-26T08:44:36.953Z,2.07
2019-04-26T08:47:16.414Z,2.20
2019-04-26T08:49:52.559Z,2.20
2019-04-26T08:52:25.896Z,2.57
2019-04-26T08:54:58.346Z,2.53
2019-04-26T08:57:31.375Z,2.33
2019-04-26T09:00:04.471Z,2.57
2019-04-26T09:02:42.850Z,2.23
2019-04-26T09:05:23.193Z,3.43
2019-04-26T09:07:57.594Z,2.70
2019-04-26T09:10:31.378Z,3.30
2019-04-26T09:13:03.925Z,3.90
2019-04-26T09:15:57.060Z,2.50
2019-04-26T09:18:27.901Z,3.50
2019-04-26T09:20:57.873Z,2.60
2019-04-26T09:23:39.878Z,3.30
2019-04-26T09:26:08.544Z,2.33
2019-04-26T09:28:56.509Z,2.47
2019-04-26T09:31:28.565Z,2.80
2019-04-26T09:34:06.388Z,2.47
2019-04-26T09:36:34.975Z,2.60
2019-04-26T09:39:09.846Z,2.50
2019-04-26T09:41:40.136Z,2.63
2019-04-26T09:44:27.811Z,3.60
2019-04-26T09:47:15.705Z,2.67
2019-04-26T09:50:03.400Z,2.53
2019-04-26T09:52:50.179Z,2.80
2019-04-26T09:55:20.143Z,2.73
2019-04-26T09:57:53.525Z,2.60
2019-04-26T10:00:23.868Z,2.87
2019-04-26T10:02:53.886Z,2.80
2019-04-26T10:05:23.904Z,3.00
2019-04-26T10:07:53.809Z,2.70
2019-04-26T10:10:25.407Z,2.40
2019-04-26T10:12:59.680Z,2.20
2019-04-26T10:15:49.557Z,2.47
2019-04-26T10:18:24.360Z,2.03
2019-04-26T10:20:52.730Z,2.30
2019-04-26T10:23:22.676Z,2.57
2019-04-26T10:25:53.642Z,2.60
2019-04-26T10:28:24.858Z,2.20
2019-04-26T10:30:54.899Z,2.83
2019-04-26T10:33:24.840Z,2.57
2019-04-26T10:35:56.636Z,3.33
2019-04-26T10:38:26.387Z,2.70
2019-04-26T10:40:56.363Z,2.60
2019-04-26T10:43:29.261Z,2.63
2019-04-26T10:45:57.980Z,2.63
2019-04-26T10:48:27.923Z,3.07
2019-04-26T10:50:57.963Z,2.87
2019-04-26T10:53:35.866Z,3.30
2019-04-26T10:56:08.015Z,3.43
2019-04-26T10:58:39.666Z,3.20
2019-04-26T11:01:11.553Z,3.10
2019-04-26T11:03:41.503Z,2.77
2019-04-26T11:06:11.471Z,3.27
2019-04-26T11:08:41.424Z,3.90
2019-04-26T11:11:11.768Z,3.03
2019-04-26T11:13:41.721Z,2.90
2019-04-26T11:16:12.701Z,3.40
2019-04-26T11:18:42.819Z,3.43
2019-04-26T11:21:16.409Z,3.37
2019-04-26T11:23:45.465Z,4.03
2019-04-26T11:26:16.672Z,3.70
2019-04-26T11:28:46.735Z,3.33
2019-04-26T11:31:16.716Z,3.03
2019-04-26T11:33:49.591Z,4.23
2019-04-26T11:36:18.248Z,3.00
2019-04-26T11:38:48.203Z,3.93
2019-04-26T11:41:18.151Z,4.23
2019-04-26T11:43:49.050Z,3.63
2019-04-26T11:46:21.807Z,3.83
2019-04-26T11:48:58.894Z,3.50
2019-04-26T11:51:23.619Z,3.77
2019-04-26T11:53:54.438Z,4.03
2019-04-26T11:56:24.397Z,3.80
2019-04-26T11:58:56.813Z,4.10
2019-04-26T12:01:27.759Z,4.00
2019-04-26T12:04:11.773Z,4.17
2019-04-26T12:07:01.353Z,3.43
2019-04-26T12:09:33.006Z,3.33
2019-04-26T12:12:04.929Z,3.83
2019-04-26T12:14:35.562Z,3.60
2019-04-26T12:17:05.516Z,3.80
2019-04-26T12:19:35.451Z,4.00
2019-04-26T12:22:08.205Z,5.07
2019-04-26T12:24:37.213Z,4.03
2019-04-26T12:27:10.041Z,4.40
2019-04-26T12:29:38.931Z,4.43
2019-04-26T12:32:08.878Z,5.13
2019-04-26T12:34:38.830Z,4.57
2019-04-26T12:37:12.506Z,5.20
2019-04-26T12:39:40.415Z,4.70
2019-04-26T12:42:12.267Z,4.17
2019-04-26T12:44:43.796Z,4.07
2019-04-26T12:47:16.398Z,4.67
2019-04-26T12:49:46.353Z,5.50
2019-04-26T12:52:17.517Z,5.17
2019-04-26T12:54:47.946Z,4.37
2019-04-26T12:57:17.923Z,4.77
2019-04-26T12:59:47.960Z,5.10
2019-04-26T13:02:20.779Z,4.57
2019-04-26T13:04:49.530Z,3.40
2019-04-26T13:07:23.737Z,3.20
2019-04-26T13:09:57.166Z,3.63
2019-04-26T13:12:30.821Z,3.30
2019-04-26T13:15:22.274Z,3.13
2019-04-26T13:17:53.691Z,2.95
2019-04-26T13:20:24.404Z,3.57
2019-04-26T13:22:55.927Z,3.00
2019-04-26T13:25:26.714Z,2.90
2019-04-26T13:27:57.544Z,3.08
2019-04-26T13:30:32.997Z,3.60
2019-04-26T13:32:59.062Z,2.90
2019-04-26T13:35:29.014Z,2.92
2019-04-26T13:37:58.966Z,2.42
2019-04-26T13:40:29.509Z,2.55
2019-04-26T13:42:59.531Z,2.30
2019-04-26T13:45:31.187Z,2.25
2019-04-26T13:48:19.278Z,2.30
2019-04-26T13:51:01.289Z,2.10
2019-04-26T13:53:31.555Z,2.05
2019-04-26T13:56:01.918Z,1.92
2019-04-26T13:58:32.701Z,2.30
2019-04-26T14:01:04.087Z,2.58
2019-04-26T14:03:34.035Z,2.00
2019-04-26T14:06:03.986Z,2.02
2019-04-26T14:08:33.941Z,2.87
2019-04-26T14:11:04.453Z,2.55
2019-04-26T14:13:34.409Z,2.55
2019-04-26T14:16:04.704Z,2.58
2019-04-26T14:18:38.861Z,2.98
2019-04-26T14:21:06.218Z,2.52
2019-04-26T14:23:38.872Z,2.55
2019-04-26T14:26:15.934Z,2.60
2019-04-26T14:28:45.890Z,3.08
2019-04-26T14:31:16.340Z,3.22
2019-04-26T14:33:47.402Z,2.10
2019-04-26T14:36:18.398Z,2.65
2019-04-26T14:38:48.608Z,2.08
2019-04-26T14:41:22.492Z,2.35
2019-04-26T14:43:52.491Z,2.62
2019-04-26T14:46:23.023Z,2.42
2019-04-26T14:49:01.384Z,2.75
2019-04-26T14:51:24.744Z,2.80
2019-04-26T14:53:54.691Z,2.20
2019-04-26T14:56:29.140Z,2.20
2019-04-26T14:58:56.223Z,2.55
2019-04-26T15:01:44.326Z,2.35
2019-04-26T15:04:33.764Z,3.08
2019-04-26T15:07:05.643Z,3.12
2019-04-26T15:09:36.637Z,3.02
2019-04-26T15:12:07.829Z,2.87
2019-04-26T15:14:38.492Z,3.35
2019-04-26T15:17:08.583Z,2.77
2019-04-26T15:19:40.289Z,3.10
2019-04-26T15:22:12.089Z,3.45
2019-04-26T15:24:42.195Z,3.20
2019-04-26T15:27:12.227Z,3.30
2019-04-26T15:29:42.408Z,3.27
2019-04-26T15:32:15.387Z,3.27
2019-04-26T15:34:45.330Z,3.03
2019-04-26T15:37:16.211Z,3.80
2019-04-26T15:39:56.844Z,3.27
2019-04-26T15:42:29.271Z,3.30
2019-04-26T15:45:06.395Z,3.00
2019-04-26T15:47:50.212Z,2.93
2019-04-26T15:50:24.756Z,2.97
2019-04-26T15:52:54.698Z,2.87
2019-04-26T15:55:24.710Z,3.03
2019-04-26T15:57:54.659Z,3.10
2019-04-26T16:00:28.216Z,3.17
2019-04-26T16:02:58.629Z,3.43
2019-04-26T16:05:29.829Z,3.50
2019-04-26T16:08:01.859Z,3.07
2019-04-26T16:10:37.090Z,3.43
2019-04-26T16:13:16.097Z,3.47
2019-04-26T16:15:34.686Z,3.63
2019-04-26T16:18:04.806Z,3.70
2019-04-26T16:20:38.033Z,3.70
2019-04-26T16:23:07.409Z,3.87
2019-04-26T16:25:39.321Z,3.90
2019-04-26T16:28:17.011Z,3.73
2019-04-26T16:30:53.090Z,4.27
2019-04-26T16:33:28.529Z,4.60
2019-04-26T16:35:57.393Z,4.77
2019-04-26T16:38:29.582Z,4.57
2019-04-26T16:40:59.537Z,4.63
2019-04-26T16:43:37.647Z,4.83
2019-04-26T16:46:02.296Z,5.70
2019-04-26T16:48:32.547Z,5.60
2019-04-26T16:51:08.554Z,5.77
2019-04-26T16:56:06.651Z,6.43
2019-04-26T16:58:42.265Z,7.50
2019-04-26T17:00:46.555Z,6.37
2019-04-26T17:01:10.261Z,7.30
2019-04-26T17:03:45.241Z,8.33
2019-04-26T17:06:14.390Z,7.37
2019-04-26T17:08:50.063Z,8.63
2019-04-26T17:11:15.566Z,9.43
2019-04-26T17:13:50.588Z,9.37
2019-04-26T17:16:17.088Z,9.87
2019-04-26T17:18:47.043Z,10.40
2019-04-26T17:21:22.335Z,10.93
2019-04-26T17:24:00.861Z,10.67
2019-04-26T17:26:36.462Z,10.67
2019-04-26T17:29:05.822Z,11.47
2019-04-26T17:31:35.779Z,11.17
2019-04-26T17:34:05.803Z,11.67
2019-04-26T17:36:35.782Z,12.27
2019-04-26T17:39:10.926Z,12.33
2019-04-26T17:41:45.112Z,12.20
2019-04-26T17:44:13.304Z,11.90
2019-04-26T17:46:43.487Z,12.20
2019-04-26T17:49:13.463Z,12.20
2019-04-26T17:51:44.444Z,12.87
2019-04-26T17:54:41.686Z,12.40
2019-04-26T17:56:46.151Z,12.57
2019-04-26T17:59:32.553Z,12.77
2019-04-26T18:01:55.490Z,12.77
2019-04-26T18:04:31.440Z,12.40
2019-04-26T18:06:57.889Z,12.60
2019-04-26T18:09:40.343Z,13.40
2019-04-26T18:11:55.309Z,13.93
2019-04-26T18:14:30.316Z,13.13
2019-04-26T18:17:01.501Z,15.77
2019-04-26T18:19:36.086Z,15.87
2019-04-26T18:22:07.836Z,16.47
2019-04-26T18:24:37.865Z,17.27
2019-04-26T18:27:07.942Z,18.20
2019-04-26T18:29:37.922Z,18.97
2019-04-26T18:32:07.890Z,20.93
2019-04-26T18:34:40.632Z,20.33
2019-04-26T18:37:09.911Z,21.30
2019-04-26T18:39:39.924Z,21.93
2019-04-26T18:42:09.878Z,23.23
2019-04-26T18:44:47.355Z,23.20
2019-04-26T18:47:20.593Z,20.80
2019-04-26T18:49:47.373Z,21.17
2019-04-26T18:52:19.396Z,22.07
2019-04-26T18:54:53.092Z,23.07
2019-04-26T18:57:23.833Z,24.40
2019-04-26T18:59:53.936Z,23.10
2019-04-26T19:02:25.358Z,22.73
2019-04-26T19:04:55.335Z,23.53
2019-04-26T19:07:32.106Z,25.60
2019-04-26T19:10:01.974Z,24.67
2019-04-26T19:12:28.677Z,24.67
2019-04-26T19:15:16.890Z,23.87
2019-04-26T19:17:54.776Z,22.80
2019-04-26T19:20:26.462Z,23.73
2019-04-26T19:22:58.304Z,21.53
2019-04-26T19:25:29.913Z,23.37
2019-04-26T19:28:04.459Z,26.03
2019-04-26T19:30:31.784Z,24.87
2019-04-26T19:33:02.139Z,23.67
2019-04-26T19:35:33.698Z,19.00
2019-04-26T19:38:07.441Z,16.90
2019-04-26T19:40:35.553Z,15.80
2019-04-26T19:43:09.087Z,15.43
2019-04-26T19:45:46.130Z,15.03
2019-04-26T19:48:31.370Z,15.87
2019-04-26T19:51:11.745Z,14.87
2019-04-26T19:53:51.674Z,14.70
2019-04-26T19:56:27.855Z,13.47
2019-04-26T19:58:58.730Z,13.00
2019-04-26T20:01:28.986Z,14.17
2019-04-26T20:03:58.950Z,15.43
2019-04-26T20:06:28.916Z,16.43
2019-04-26T20:08:59.848Z,17.27
2019-04-26T20:11:31.590Z,19.23
2019-04-26T20:14:03.416Z,20.97
2019-04-26T20:16:36.387Z,20.33
2019-04-26T20:19:08.085Z,24.10
2019-04-26T20:21:37.827Z,24.43
2019-04-26T20:24:07.778Z,25.73
2019-04-26T20:26:41.916Z,25.87
2019-04-26T20:29:11.455Z,23.53
2019-04-26T20:31:47.606Z,24.60
2019-04-26T20:34:18.404Z,25.77
2019-04-26T20:36:47.923Z,25.77
2019-04-26T20:39:20.866Z,24.40
2019-04-26T20:42:01.248Z,24.33
2019-04-26T20:44:28.365Z,24.90
2019-04-26T20:46:54.735Z,21.43
2019-04-26T20:49:24.672Z,21.10
2019-04-26T20:51:54.718Z,21.00
2019-04-26T20:54:24.678Z,21.43
2019-04-26T20:56:55.622Z,19.97
2019-04-26T20:59:26.990Z,20.70
2019-04-26T21:02:05.356Z,22.13
2019-04-26T21:04:38.125Z,21.77
2019-04-26T21:07:02.272Z,21.20
2019-04-26T21:09:36.164Z,20.10
2019-04-26T21:12:07.936Z,19.00
2019-04-26T21:14:37.749Z,17.30
2019-04-26T21:17:07.552Z,16.77
2019-04-26T21:19:37.507Z,17.13
2019-04-26T21:22:07.735Z,18.90
2019-04-26T21:24:39.334Z,18.77
2019-04-26T21:27:13.975Z,18.53
2019-04-26T21:29:52.506Z,18.27
2019-04-26T21:32:26.201Z,17.53
2019-04-26T21:34:57.413Z,18.10
2019-04-26T21:37:37.971Z,17.70
2019-04-26T21:40:16.153Z,17.53
2019-04-26T21:42:45.231Z,17.40
2019-04-26T21:45:16.590Z,16.60
2019-04-26T21:47:46.642Z,18.17
2019-04-26T21:50:16.592Z,18.33
2019-04-26T21:52:46.597Z,18.60
2019-04-26T21:55:16.780Z,19.33
2019-04-26T21:57:46.838Z,17.47
2019-04-26T22:00:18.967Z,18.10
2019-04-26T22:02:50.549Z,17.23
2019-04-26T22:05:20.506Z,15.30
2019-04-26T22:07:50.514Z,13.23
2019-04-26T22:10:23.485Z,11.87
2019-04-26T22:12:53.937Z,13.40
2019-04-26T22:15:29.405Z,13.37
2019-04-26T22:17:58.878Z,12.23
2019-04-26T22:20:30.474Z,11.70
2019-04-26T22:23:11.648Z,9.93
2019-04-26T22:25:42.319Z,11.53
2019-04-26T22:28:13.076Z,10.70
2019-04-26T22:30:43.175Z,11.13
2019-04-26T22:33:13.263Z,11.73
2019-04-26T22:35:43.276Z,11.57
2019-04-26T22:38:17.507Z,9.77
2019-04-26T22:40:48.591Z,9.97
2019-04-26T22:43:22.937Z,10.80
2019-04-26T22:45:58.435Z,9.67
2019-04-26T22:48:33.929Z,10.00
2019-04-26T22:51:04.740Z,11.00
2019-04-26T22:53:34.891Z,11.70
2019-04-26T22:56:05.075Z,10.50
2019-04-26T22:58:35.139Z,10.17
2019-04-26T23:01:06.258Z,9.87
2019-04-26T23:03:40.500Z,9.37
2019-04-26T23:06:11.692Z,10.67
2019-04-26T23:08:39.934Z,10.27
2019-04-26T23:11:10.741Z,9.07
2019-04-26T23:13:48.226Z,9.50
2019-04-26T23:16:19.819Z,9.60
2019-04-26T23:19:00.230Z,10.40
2019-04-26T23:21:33.952Z,10.20
2019-04-26T23:24:03.875Z,9.80
2019-04-26T23:26:37.536Z,8.93
2019-04-26T23:29:08.614Z,10.77
2019-04-26T23:31:37.538Z,10.20
2019-04-26T23:34:07.564Z,9.50
2019-04-26T23:36:37.519Z,11.10
2019-04-26T23:39:11.819Z,10.47
2019-04-26T23:41:41.606Z,10.77
2019-04-26T23:44:13.052Z,10.90
2019-04-26T23:46:43.955Z,10.47
2019-04-26T23:49:14.492Z,10.30
2019-04-26T23:51:45.875Z,11.13
2019-04-26T23:54:16.096Z,10.53
2019-04-26T23:56:46.067Z,11.50
2019-04-26T23:59:20.722Z,10.63
